sensor_id;sensor_type;location;lat;lon;timestamp;P1;durP1;ratioP1;P2;durP2;ratioP2
38717;SDS011;24468;52.128;9.278;2023-01-01T00:01:23;13.50;;;8.00;;
38717;SDS011;24468;52.128;9.278;2023-01-01T00:03:49;8.07;;;3.35;;
38717;SDS011;24468;52.128;9.278;2023-01-01T00:06:16;7.18;;;2.30;;
38717;SDS011;24468;52.128;9.278;2023-01-01T00:08:41;8.98;;;3.17;;
38717;SDS011;24468;52.128;9.278;2023-01-01T00:11:07;10.73;;;3.10;;
38717;SDS011;24468;52.128;9.278;2023-01-01T00:13:34;8.50;;;3.92;;
38717;SDS011;24468;52.128;9.278;2023-01-01T00:18:36;8.07;;;3.53;;
38717;SDS011;24468;52.128;9.278;2023-01-01T00:23:30;7.53;;;3.30;;
38717;SDS011;24468;52.128;9.278;2023-01-01T00:25:56;9.13;;;3.17;;
38717;SDS011;24468;52.128;9.278;2023-01-01T00:28:22;11.43;;;4.60;;
38717;SDS011;24468;52.128;9.278;2023-01-01T00:30:47;10.05;;;3.65;;
38717;SDS011;24468;52.128;9.278;2023-01-01T00:33:13;14.55;;;4.85;;
38717;SDS011;24468;52.128;9.278;2023-01-01T00:35:38;12.32;;;3.88;;
38717;SDS011;24468;52.128;9.278;2023-01-01T00:38:04;9.73;;;5.25;;
38717;SDS011;24468;52.128;9.278;2023-01-01T00:40:30;12.00;;;9.52;;
38717;SDS011;24468;52.128;9.278;2023-01-01T00:42:55;11.88;;;3.00;;
38717;SDS011;24468;52.128;9.278;2023-01-01T00:45:21;12.35;;;4.00;;
38717;SDS011;24468;52.128;9.278;2023-01-01T00:47:47;7.60;;;3.53;;
38717;SDS011;24468;52.128;9.278;2023-01-01T00:50:16;10.82;;;4.78;;
38717;SDS011;24468;52.128;9.278;2023-01-01T00:52:43;12.15;;;3.78;;
38717;SDS011;24468;52.128;9.278;2023-01-01T00:55:09;15.15;;;5.53;;
38717;SDS011;24468;52.128;9.278;2023-01-01T00:57:35;10.95;;;4.20;;
38717;SDS011;24468;52.128;9.278;2023-01-01T01:00:01;8.07;;;3.08;;
38717;SDS011;24468;52.128;9.278;2023-01-01T01:02:26;9.82;;;3.47;;
38717;SDS011;24468;52.128;9.278;2023-01-01T01:04:52;5.10;;;3.20;;
38717;SDS011;24468;52.128;9.278;2023-01-01T01:07:17;10.73;;;4.38;;
38717;SDS011;24468;52.128;9.278;2023-01-01T01:09:43;6.97;;;3.55;;
38717;SDS011;24468;52.128;9.278;2023-01-01T01:12:08;14.75;;;3.67;;
38717;SDS011;24468;52.128;9.278;2023-01-01T01:14:34;7.80;;;3.85;;
38717;SDS011;24468;52.128;9.278;2023-01-01T01:16:59;9.57;;;3.65;;
38717;SDS011;24468;52.128;9.278;2023-01-01T01:19:25;6.43;;;3.40;;
38717;SDS011;24468;52.128;9.278;2023-01-01T01:21:51;8.90;;;3.58;;
38717;SDS011;24468;52.128;9.278;2023-01-01T01:24:17;6.88;;;3.25;;
38717;SDS011;24468;52.128;9.278;2023-01-01T01:26:42;13.48;;;3.72;;
38717;SDS011;24468;52.128;9.278;2023-01-01T01:29:08;9.43;;;4.57;;
38717;SDS011;24468;52.128;9.278;2023-01-01T01:31:33;7.85;;;3.13;;
38717;SDS011;24468;52.128;9.278;2023-01-01T01:33:59;7.72;;;3.70;;
38717;SDS011;24468;52.128;9.278;2023-01-01T01:36:26;8.50;;;4.10;;
38717;SDS011;24468;52.128;9.278;2023-01-01T01:38:52;6.68;;;3.33;;
38717;SDS011;24468;52.128;9.278;2023-01-01T01:41:20;6.85;;;3.08;;
38717;SDS011;24468;52.128;9.278;2023-01-01T01:43:52;12.13;;;3.85;;
38717;SDS011;24468;52.128;9.278;2023-01-01T01:46:40;10.57;;;4.20;;
38717;SDS011;24468;52.128;9.278;2023-01-01T01:49:12;6.13;;;3.27;;
38717;SDS011;24468;52.128;9.278;2023-01-01T01:51:45;13.38;;;3.90;;
38717;SDS011;24468;52.128;9.278;2023-01-01T01:54:17;7.55;;;3.15;;
38717;SDS011;24468;52.128;9.278;2023-01-01T01:56:49;7.40;;;3.20;;
38717;SDS011;24468;52.128;9.278;2023-01-01T01:59:32;9.93;;;3.40;;
38717;SDS011;24468;52.128;9.278;2023-01-01T02:02:02;6.97;;;3.00;;
38717;SDS011;24468;52.128;9.278;2023-01-01T02:04:39;10.48;;;3.50;;
38717;SDS011;24468;52.128;9.278;2023-01-01T02:07:05;8.05;;;3.47;;
38717;SDS011;24468;52.128;9.278;2023-01-01T02:09:31;14.13;;;3.58;;
38717;SDS011;24468;52.128;9.278;2023-01-01T02:11:57;9.50;;;3.33;;
38717;SDS011;24468;52.128;9.278;2023-01-01T02:14:23;16.17;;;5.97;;
38717;SDS011;24468;52.128;9.278;2023-01-01T02:16:50;14.02;;;5.20;;
38717;SDS011;24468;52.128;9.278;2023-01-01T02:19:30;8.82;;;3.90;;
38717;SDS011;24468;52.128;9.278;2023-01-01T02:25:16;8.57;;;3.97;;
38717;SDS011;24468;52.128;9.278;2023-01-01T02:28:17;10.80;;;3.17;;
38717;SDS011;24468;52.128;9.278;2023-01-01T02:31:14;15.18;;;3.70;;
38717;SDS011;24468;52.128;9.278;2023-01-01T02:33:47;5.40;;;3.47;;
38717;SDS011;24468;52.128;9.278;2023-01-01T02:36:14;9.65;;;3.67;;
38717;SDS011;24468;52.128;9.278;2023-01-01T02:38:47;10.23;;;4.60;;
38717;SDS011;24468;52.128;9.278;2023-01-01T02:41:32;11.00;;;3.97;;
38717;SDS011;24468;52.128;9.278;2023-01-01T02:44:05;20.02;;;10.18;;
38717;SDS011;24468;52.128;9.278;2023-01-01T02:46:32;10.75;;;5.15;;
38717;SDS011;24468;52.128;9.278;2023-01-01T02:48:59;8.55;;;3.78;;
38717;SDS011;24468;52.128;9.278;2023-01-01T02:51:41;21.58;;;12.55;;
38717;SDS011;24468;52.128;9.278;2023-01-01T02:54:47;21.90;;;10.85;;
38717;SDS011;24468;52.128;9.278;2023-01-01T03:00:08;9.68;;;4.13;;
38717;SDS011;24468;52.128;9.278;2023-01-01T03:03:05;11.80;;;4.88;;
38717;SDS011;24468;52.128;9.278;2023-01-01T03:05:55;8.25;;;3.08;;
38717;SDS011;24468;52.128;9.278;2023-01-01T03:09:02;6.63;;;3.17;;
38717;SDS011;24468;52.128;9.278;2023-01-01T03:12:23;5.68;;;2.67;;
38717;SDS011;24468;52.128;9.278;2023-01-01T03:15:15;3.85;;;2.38;;
38717;SDS011;24468;52.128;9.278;2023-01-01T03:17:50;6.57;;;3.15;;
38717;SDS011;24468;52.128;9.278;2023-01-01T03:20:44;5.57;;;2.58;;
38717;SDS011;24468;52.128;9.278;2023-01-01T03:23:16;9.65;;;3.05;;
38717;SDS011;24468;52.128;9.278;2023-01-01T03:25:49;9.40;;;3.53;;
38717;SDS011;24468;52.128;9.278;2023-01-01T03:28:28;5.32;;;2.72;;
38717;SDS011;24468;52.128;9.278;2023-01-01T03:31:09;6.05;;;2.70;;
38717;SDS011;24468;52.128;9.278;2023-01-01T03:33:42;3.80;;;2.10;;
38717;SDS011;24468;52.128;9.278;2023-01-01T03:36:47;10.15;;;3.30;;
38717;SDS011;24468;52.128;9.278;2023-01-01T03:41:46;10.45;;;2.25;;
38717;SDS011;24468;52.128;9.278;2023-01-01T03:44:23;5.28;;;2.35;;
38717;SDS011;24468;52.128;9.278;2023-01-01T03:47:13;14.07;;;3.40;;
38717;SDS011;24468;52.128;9.278;2023-01-01T03:49:39;7.60;;;2.70;;
38717;SDS011;24468;52.128;9.278;2023-01-01T03:55:15;4.05;;;2.05;;
38717;SDS011;24468;52.128;9.278;2023-01-01T03:58:01;6.25;;;2.42;;
38717;SDS011;24468;52.128;9.278;2023-01-01T04:00:44;5.25;;;2.30;;
38717;SDS011;24468;52.128;9.278;2023-01-01T04:03:21;7.90;;;2.47;;
38717;SDS011;24468;52.128;9.278;2023-01-01T04:05:51;6.65;;;2.75;;
38717;SDS011;24468;52.128;9.278;2023-01-01T04:08:17;5.43;;;2.50;;
38717;SDS011;24468;52.128;9.278;2023-01-01T04:10:54;4.05;;;1.95;;
38717;SDS011;24468;52.128;9.278;2023-01-01T04:13:23;3.70;;;2.15;;
38717;SDS011;24468;52.128;9.278;2023-01-01T04:15:48;5.80;;;2.28;;
38717;SDS011;24468;52.128;9.278;2023-01-01T04:18:14;5.07;;;1.50;;
38717;SDS011;24468;52.128;9.278;2023-01-01T04:20:40;4.60;;;2.10;;
38717;SDS011;24468;52.128;9.278;2023-01-01T04:23:05;10.43;;;3.30;;
38717;SDS011;24468;52.128;9.278;2023-01-01T04:25:31;8.10;;;2.85;;
38717;SDS011;24468;52.128;9.278;2023-01-01T04:27:56;4.70;;;2.35;;
38717;SDS011;24468;52.128;9.278;2023-01-01T04:30:22;4.47;;;2.00;;
38717;SDS011;24468;52.128;9.278;2023-01-01T04:32:48;7.05;;;2.28;;
38717;SDS011;24468;52.128;9.278;2023-01-01T04:35:14;4.35;;;1.65;;
38717;SDS011;24468;52.128;9.278;2023-01-01T04:37:41;4.13;;;1.70;;
38717;SDS011;24468;52.128;9.278;2023-01-01T04:40:09;6.03;;;2.35;;
38717;SDS011;24468;52.128;9.278;2023-01-01T04:42:36;4.63;;;1.70;;
38717;SDS011;24468;52.128;9.278;2023-01-01T04:45:01;3.45;;;1.50;;
38717;SDS011;24468;52.128;9.278;2023-01-01T04:47:28;4.28;;;2.35;;
38717;SDS011;24468;52.128;9.278;2023-01-01T04:49:53;5.80;;;2.20;;
38717;SDS011;24468;52.128;9.278;2023-01-01T04:52:19;4.40;;;1.65;;
38717;SDS011;24468;52.128;9.278;2023-01-01T04:54:44;5.00;;;1.77;;
38717;SDS011;24468;52.128;9.278;2023-01-01T04:57:10;3.53;;;1.60;;
38717;SDS011;24468;52.128;9.278;2023-01-01T04:59:36;6.05;;;1.50;;
38717;SDS011;24468;52.128;9.278;2023-01-01T05:02:02;5.53;;;1.40;;
38717;SDS011;24468;52.128;9.278;2023-01-01T05:04:27;6.15;;;1.83;;
38717;SDS011;24468;52.128;9.278;2023-01-01T05:06:53;3.88;;;2.15;;
38717;SDS011;24468;52.128;9.278;2023-01-01T05:09:19;4.15;;;1.75;;
38717;SDS011;24468;52.128;9.278;2023-01-01T05:11:45;7.05;;;1.65;;
38717;SDS011;24468;52.128;9.278;2023-01-01T05:14:11;6.80;;;2.15;;
38717;SDS011;24468;52.128;9.278;2023-01-01T05:16:37;3.13;;;1.35;;
38717;SDS011;24468;52.128;9.278;2023-01-01T05:19:04;6.00;;;2.10;;
38717;SDS011;24468;52.128;9.278;2023-01-01T05:21:31;3.88;;;1.45;;
38717;SDS011;24468;52.128;9.278;2023-01-01T05:24:00;3.92;;;1.58;;
38717;SDS011;24468;52.128;9.278;2023-01-01T05:26:30;3.17;;;1.83;;
38717;SDS011;24468;52.128;9.278;2023-01-01T05:29:00;4.95;;;1.23;;
38717;SDS011;24468;52.128;9.278;2023-01-01T05:31:28;4.57;;;1.40;;
38717;SDS011;24468;52.128;9.278;2023-01-01T05:33:56;2.25;;;1.27;;
38717;SDS011;24468;52.128;9.278;2023-01-01T05:36:27;5.97;;;1.83;;
38717;SDS011;24468;52.128;9.278;2023-01-01T05:38:59;3.00;;;1.23;;
38717;SDS011;24468;52.128;9.278;2023-01-01T05:41:25;3.92;;;1.25;;
38717;SDS011;24468;52.128;9.278;2023-01-01T05:43:51;3.90;;;1.25;;
38717;SDS011;24468;52.128;9.278;2023-01-01T05:46:21;3.97;;;1.00;;
38717;SDS011;24468;52.128;9.278;2023-01-01T05:48:48;3.50;;;1.38;;
38717;SDS011;24468;52.128;9.278;2023-01-01T05:51:22;5.03;;;1.27;;
38717;SDS011;24468;52.128;9.278;2023-01-01T05:53:50;3.58;;;0.98;;
38717;SDS011;24468;52.128;9.278;2023-01-01T05:56:17;5.20;;;1.27;;
38717;SDS011;24468;52.128;9.278;2023-01-01T05:58:44;3.35;;;1.20;;
38717;SDS011;24468;52.128;9.278;2023-01-01T06:01:14;3.35;;;0.95;;
38717;SDS011;24468;52.128;9.278;2023-01-01T06:03:43;3.13;;;1.83;;
38717;SDS011;24468;52.128;9.278;2023-01-01T06:06:12;2.75;;;1.13;;
38717;SDS011;24468;52.128;9.278;2023-01-01T06:08:40;4.63;;;1.23;;
38717;SDS011;24468;52.128;9.278;2023-01-01T06:11:07;3.50;;;1.13;;
38717;SDS011;24468;52.128;9.278;2023-01-01T06:13:35;2.50;;;1.00;;
38717;SDS011;24468;52.128;9.278;2023-01-01T06:16:01;2.45;;;1.27;;
38717;SDS011;24468;52.128;9.278;2023-01-01T06:18:29;2.63;;;0.95;;
38717;SDS011;24468;52.128;9.278;2023-01-01T06:21:06;3.80;;;1.58;;
38717;SDS011;24468;52.128;9.278;2023-01-01T06:23:33;2.88;;;1.10;;
38717;SDS011;24468;52.128;9.278;2023-01-01T06:26:03;2.97;;;1.20;;
38717;SDS011;24468;52.128;9.278;2023-01-01T06:28:34;3.15;;;1.13;;
38717;SDS011;24468;52.128;9.278;2023-01-01T06:31:03;3.45;;;1.33;;
38717;SDS011;24468;52.128;9.278;2023-01-01T06:33:32;2.60;;;1.33;;
38717;SDS011;24468;52.128;9.278;2023-01-01T06:35:58;3.53;;;1.25;;
38717;SDS011;24468;52.128;9.278;2023-01-01T06:38:31;1.98;;;1.38;;
38717;SDS011;24468;52.128;9.278;2023-01-01T06:40:59;6.68;;;1.52;;
38717;SDS011;24468;52.128;9.278;2023-01-01T06:43:28;3.38;;;1.08;;
38717;SDS011;24468;52.128;9.278;2023-01-01T06:45:59;4.68;;;0.95;;
38717;SDS011;24468;52.128;9.278;2023-01-01T06:48:55;3.33;;;1.20;;
38717;SDS011;24468;52.128;9.278;2023-01-01T06:51:30;5.43;;;1.65;;
38717;SDS011;24468;52.128;9.278;2023-01-01T06:54:04;2.28;;;1.10;;
38717;SDS011;24468;52.128;9.278;2023-01-01T06:56:31;1.73;;;1.00;;
38717;SDS011;24468;52.128;9.278;2023-01-01T06:58:57;2.15;;;1.30;;
38717;SDS011;24468;52.128;9.278;2023-01-01T07:01:23;3.17;;;1.10;;
38717;SDS011;24468;52.128;9.278;2023-01-01T07:03:57;5.47;;;1.52;;
38717;SDS011;24468;52.128;9.278;2023-01-01T07:06:27;8.55;;;1.67;;
38717;SDS011;24468;52.128;9.278;2023-01-01T07:08:55;2.45;;;0.93;;
38717;SDS011;24468;52.128;9.278;2023-01-01T07:11:21;3.42;;;1.27;;
38717;SDS011;24468;52.128;9.278;2023-01-01T07:13:47;3.10;;;1.80;;
38717;SDS011;24468;52.128;9.278;2023-01-01T07:16:12;4.78;;;1.45;;
38717;SDS011;24468;52.128;9.278;2023-01-01T07:18:39;5.13;;;1.23;;
38717;SDS011;24468;52.128;9.278;2023-01-01T07:21:05;3.95;;;1.15;;
38717;SDS011;24468;52.128;9.278;2023-01-01T07:23:45;5.95;;;1.50;;
38717;SDS011;24468;52.128;9.278;2023-01-01T07:26:11;4.05;;;1.38;;
38717;SDS011;24468;52.128;9.278;2023-01-01T07:28:36;3.47;;;1.38;;
38717;SDS011;24468;52.128;9.278;2023-01-01T07:31:02;3.33;;;1.48;;
38717;SDS011;24468;52.128;9.278;2023-01-01T07:33:27;6.63;;;1.45;;
38717;SDS011;24468;52.128;9.278;2023-01-01T07:35:53;4.50;;;1.48;;
38717;SDS011;24468;52.128;9.278;2023-01-01T07:38:18;2.83;;;1.27;;
38717;SDS011;24468;52.128;9.278;2023-01-01T07:40:44;3.20;;;1.20;;
38717;SDS011;24468;52.128;9.278;2023-01-01T07:43:09;1.85;;;1.35;;
38717;SDS011;24468;52.128;9.278;2023-01-01T07:45:36;6.78;;;1.23;;
38717;SDS011;24468;52.128;9.278;2023-01-01T07:48:02;2.45;;;1.52;;
38717;SDS011;24468;52.128;9.278;2023-01-01T07:50:29;4.43;;;1.60;;
38717;SDS011;24468;52.128;9.278;2023-01-01T07:52:56;5.57;;;1.45;;
38717;SDS011;24468;52.128;9.278;2023-01-01T07:55:22;3.70;;;1.50;;
38717;SDS011;24468;52.128;9.278;2023-01-01T07:57:48;2.25;;;1.05;;
38717;SDS011;24468;52.128;9.278;2023-01-01T08:00:14;3.45;;;1.55;;
38717;SDS011;24468;52.128;9.278;2023-01-01T08:02:43;4.90;;;1.38;;
38717;SDS011;24468;52.128;9.278;2023-01-01T08:05:09;2.60;;;0.70;;
38717;SDS011;24468;52.128;9.278;2023-01-01T08:07:35;4.75;;;1.50;;
38717;SDS011;24468;52.128;9.278;2023-01-01T08:10:01;5.20;;;1.23;;
38717;SDS011;24468;52.128;9.278;2023-01-01T08:12:28;5.07;;;1.25;;
38717;SDS011;24468;52.128;9.278;2023-01-01T08:14:54;1.58;;;0.88;;
38717;SDS011;24468;52.128;9.278;2023-01-01T08:17:20;7.50;;;1.55;;
38717;SDS011;24468;52.128;9.278;2023-01-01T08:19:45;3.78;;;1.00;;
38717;SDS011;24468;52.128;9.278;2023-01-01T08:22:13;2.35;;;1.00;;
38717;SDS011;24468;52.128;9.278;2023-01-01T08:24:39;2.85;;;1.23;;
38717;SDS011;24468;52.128;9.278;2023-01-01T08:27:05;3.08;;;1.33;;
38717;SDS011;24468;52.128;9.278;2023-01-01T08:29:30;5.32;;;1.00;;
38717;SDS011;24468;52.128;9.278;2023-01-01T08:31:56;3.70;;;1.50;;
38717;SDS011;24468;52.128;9.278;2023-01-01T08:34:21;3.10;;;1.20;;
38717;SDS011;24468;52.128;9.278;2023-01-01T08:36:47;2.45;;;1.17;;
38717;SDS011;24468;52.128;9.278;2023-01-01T08:39:12;3.63;;;1.35;;
38717;SDS011;24468;52.128;9.278;2023-01-01T08:41:38;3.63;;;0.98;;
38717;SDS011;24468;52.128;9.278;2023-01-01T08:44:03;6.40;;;1.35;;
38717;SDS011;24468;52.128;9.278;2023-01-01T08:46:29;4.82;;;1.35;;
38717;SDS011;24468;52.128;9.278;2023-01-01T08:48:54;3.78;;;1.17;;
38717;SDS011;24468;52.128;9.278;2023-01-01T08:51:20;4.00;;;1.38;;
38717;SDS011;24468;52.128;9.278;2023-01-01T08:53:46;2.72;;;1.17;;
38717;SDS011;24468;52.128;9.278;2023-01-01T08:56:12;4.50;;;1.27;;
38717;SDS011;24468;52.128;9.278;2023-01-01T08:58:40;6.43;;;1.33;;
38717;SDS011;24468;52.128;9.278;2023-01-01T09:01:06;3.05;;;1.33;;
38717;SDS011;24468;52.128;9.278;2023-01-01T09:03:32;4.05;;;0.90;;
38717;SDS011;24468;52.128;9.278;2023-01-01T09:05:58;3.05;;;1.10;;
38717;SDS011;24468;52.128;9.278;2023-01-01T09:08:23;4.38;;;1.52;;
38717;SDS011;24468;52.128;9.278;2023-01-01T09:10:49;4.15;;;0.90;;
38717;SDS011;24468;52.128;9.278;2023-01-01T09:13:16;3.20;;;1.50;;
38717;SDS011;24468;52.128;9.278;2023-01-01T09:15:45;3.15;;;1.30;;
38717;SDS011;24468;52.128;9.278;2023-01-01T09:18:11;4.13;;;1.10;;
38717;SDS011;24468;52.128;9.278;2023-01-01T09:20:38;5.68;;;1.40;;
38717;SDS011;24468;52.128;9.278;2023-01-01T09:23:04;2.95;;;1.40;;
38717;SDS011;24468;52.128;9.278;2023-01-01T09:25:31;4.10;;;1.45;;
38717;SDS011;24468;52.128;9.278;2023-01-01T09:28:02;3.53;;;1.15;;
38717;SDS011;24468;52.128;9.278;2023-01-01T09:30:31;4.60;;;1.52;;
38717;SDS011;24468;52.128;9.278;2023-01-01T09:32:57;4.03;;;1.02;;
38717;SDS011;24468;52.128;9.278;2023-01-01T09:35:23;4.00;;;1.05;;
38717;SDS011;24468;52.128;9.278;2023-01-01T09:37:49;5.75;;;1.20;;
38717;SDS011;24468;52.128;9.278;2023-01-01T09:40:35;2.33;;;1.23;;
38717;SDS011;24468;52.128;9.278;2023-01-01T09:43:20;2.38;;;1.45;;
38717;SDS011;24468;52.128;9.278;2023-01-01T09:46:09;2.05;;;1.30;;
38717;SDS011;24468;52.128;9.278;2023-01-01T09:48:37;5.75;;;1.38;;
38717;SDS011;24468;52.128;9.278;2023-01-01T09:51:14;2.88;;;0.98;;
38717;SDS011;24468;52.128;9.278;2023-01-01T09:54:00;4.50;;;1.77;;
38717;SDS011;24468;52.128;9.278;2023-01-01T09:56:40;8.55;;;1.70;;
38717;SDS011;24468;52.128;9.278;2023-01-01T09:59:09;3.03;;;1.65;;
38717;SDS011;24468;52.128;9.278;2023-01-01T10:01:46;2.17;;;1.50;;
38717;SDS011;24468;52.128;9.278;2023-01-01T10:04:23;5.60;;;1.45;;
38717;SDS011;24468;52.128;9.278;2023-01-01T10:07:08;3.38;;;1.73;;
38717;SDS011;24468;52.128;9.278;2023-01-01T10:13:15;2.85;;;1.40;;
38717;SDS011;24468;52.128;9.278;2023-01-01T10:15:57;2.72;;;1.33;;
38717;SDS011;24468;52.128;9.278;2023-01-01T10:18:35;1.42;;;0.80;;
38717;SDS011;24468;52.128;9.278;2023-01-01T10:23:30;3.53;;;1.52;;
38717;SDS011;24468;52.128;9.278;2023-01-01T10:26:11;5.45;;;1.70;;
38717;SDS011;24468;52.128;9.278;2023-01-01T10:28:53;4.20;;;1.67;;
38717;SDS011;24468;52.128;9.278;2023-01-01T10:31:46;3.88;;;1.60;;
38717;SDS011;24468;52.128;9.278;2023-01-01T10:36:56;5.28;;;2.03;;
38717;SDS011;24468;52.128;9.278;2023-01-01T10:39:23;4.03;;;2.15;;
38717;SDS011;24468;52.128;9.278;2023-01-01T10:41:50;4.13;;;1.75;;
38717;SDS011;24468;52.128;9.278;2023-01-01T10:44:17;8.25;;;1.45;;
38717;SDS011;24468;52.128;9.278;2023-01-01T10:47:00;5.45;;;2.17;;
38717;SDS011;24468;52.128;9.278;2023-01-01T10:52:36;4.00;;;1.50;;
38717;SDS011;24468;52.128;9.278;2023-01-01T10:55:05;10.23;;;1.98;;
38717;SDS011;24468;52.128;9.278;2023-01-01T10:57:43;5.68;;;2.00;;
38717;SDS011;24468;52.128;9.278;2023-01-01T11:03:04;3.25;;;1.30;;
38717;SDS011;24468;52.128;9.278;2023-01-01T11:06:00;3.38;;;1.27;;
38717;SDS011;24468;52.128;9.278;2023-01-01T11:08:45;3.03;;;1.48;;
38717;SDS011;24468;52.128;9.278;2023-01-01T11:11:22;2.42;;;1.55;;
38717;SDS011;24468;52.128;9.278;2023-01-01T11:13:59;3.03;;;1.40;;
38717;SDS011;24468;52.128;9.278;2023-01-01T11:16:28;6.88;;;3.40;;
38717;SDS011;24468;52.128;9.278;2023-01-01T11:19:05;4.18;;;3.03;;
38717;SDS011;24468;52.128;9.278;2023-01-01T11:21:33;3.45;;;1.50;;
38717;SDS011;24468;52.128;9.278;2023-01-01T11:24:14;2.25;;;1.15;;
38717;SDS011;24468;52.128;9.278;2023-01-01T11:26:47;1.85;;;0.80;;
38717;SDS011;24468;52.128;9.278;2023-01-01T11:29:26;4.18;;;1.20;;
38717;SDS011;24468;52.128;9.278;2023-01-01T11:31:53;4.15;;;1.70;;
38717;SDS011;24468;52.128;9.278;2023-01-01T11:34:34;4.18;;;1.63;;
38717;SDS011;24468;52.128;9.278;2023-01-01T11:39:32;1.85;;;1.05;;
38717;SDS011;24468;52.128;9.278;2023-01-01T11:42:01;6.15;;;1.25;;
38717;SDS011;24468;52.128;9.278;2023-01-01T11:44:35;2.15;;;1.02;;
38717;SDS011;24468;52.128;9.278;2023-01-01T11:47:54;3.58;;;1.30;;
38717;SDS011;24468;52.128;9.278;2023-01-01T11:52:41;5.03;;;2.80;;
38717;SDS011;24468;52.128;9.278;2023-01-01T11:55:11;6.30;;;4.00;;
38717;SDS011;24468;52.128;9.278;2023-01-01T11:57:45;6.75;;;1.95;;
38717;SDS011;24468;52.128;9.278;2023-01-01T12:00:44;2.58;;;1.27;;
38717;SDS011;24468;52.128;9.278;2023-01-01T12:06:06;1.63;;;1.10;;
38717;SDS011;24468;52.128;9.278;2023-01-01T12:08:55;2.75;;;1.25;;
38717;SDS011;24468;52.128;9.278;2023-01-01T12:23:02;2.50;;;0.93;;
38717;SDS011;24468;52.128;9.278;2023-01-01T12:25:32;4.55;;;1.08;;
38717;SDS011;24468;52.128;9.278;2023-01-01T12:28:09;2.72;;;1.50;;
38717;SDS011;24468;52.128;9.278;2023-01-01T12:33:57;1.92;;;1.30;;
38717;SDS011;24468;52.128;9.278;2023-01-01T12:42:00;3.30;;;1.17;;
38717;SDS011;24468;52.128;9.278;2023-01-01T12:55:03;1.80;;;1.23;;
38717;SDS011;24468;52.128;9.278;2023-01-01T13:00:21;3.42;;;1.75;;
38717;SDS011;24468;52.128;9.278;2023-01-01T13:02:51;2.15;;;0.88;;
38717;SDS011;24468;52.128;9.278;2023-01-01T13:05:34;2.53;;;1.50;;
38717;SDS011;24468;52.128;9.278;2023-01-01T13:08:06;2.85;;;0.98;;
38717;SDS011;24468;52.128;9.278;2023-01-01T13:10:32;2.13;;;1.00;;
38717;SDS011;24468;52.128;9.278;2023-01-01T13:18:02;4.47;;;1.40;;
38717;SDS011;24468;52.128;9.278;2023-01-01T13:20:58;5.00;;;1.42;;
38717;SDS011;24468;52.128;9.278;2023-01-01T13:23:40;3.03;;;1.35;;
38717;SDS011;24468;52.128;9.278;2023-01-01T13:39:51;7.10;;;2.88;;
38717;SDS011;24468;52.128;9.278;2023-01-01T13:50:58;4.10;;;1.30;;
38717;SDS011;24468;52.128;9.278;2023-01-01T13:56:58;5.88;;;1.50;;
38717;SDS011;24468;52.128;9.278;2023-01-01T14:02:43;4.18;;;1.30;;
38717;SDS011;24468;52.128;9.278;2023-01-01T14:05:20;3.42;;;1.02;;
38717;SDS011;24468;52.128;9.278;2023-01-01T14:07:54;5.68;;;1.95;;
38717;SDS011;24468;52.128;9.278;2023-01-01T14:10:33;6.88;;;1.58;;
38717;SDS011;24468;52.128;9.278;2023-01-01T14:15:35;5.72;;;2.20;;
38717;SDS011;24468;52.128;9.278;2023-01-01T14:18:04;5.13;;;1.38;;
38717;SDS011;24468;52.128;9.278;2023-01-01T14:20:40;5.65;;;1.75;;
38717;SDS011;24468;52.128;9.278;2023-01-01T14:23:10;5.40;;;2.50;;
38717;SDS011;24468;52.128;9.278;2023-01-01T14:25:40;5.80;;;4.73;;
38717;SDS011;24468;52.128;9.278;2023-01-01T14:28:12;14.73;;;11.02;;
38717;SDS011;24468;52.128;9.278;2023-01-01T14:30:53;3.70;;;2.13;;
38717;SDS011;24468;52.128;9.278;2023-01-01T14:36:00;6.03;;;2.30;;
38717;SDS011;24468;52.128;9.278;2023-01-01T14:38:33;6.55;;;1.55;;
38717;SDS011;24468;52.128;9.278;2023-01-01T14:44:02;4.55;;;1.77;;
38717;SDS011;24468;52.128;9.278;2023-01-01T14:46:34;7.22;;;2.25;;
38717;SDS011;24468;52.128;9.278;2023-01-01T14:49:09;6.43;;;2.42;;
38717;SDS011;24468;52.128;9.278;2023-01-01T14:51:45;5.32;;;2.42;;
38717;SDS011;24468;52.128;9.278;2023-01-01T14:54:20;5.00;;;1.92;;
38717;SDS011;24468;52.128;9.278;2023-01-01T14:56:50;5.20;;;1.38;;
38717;SDS011;24468;52.128;9.278;2023-01-01T14:59:19;5.93;;;1.63;;
38717;SDS011;24468;52.128;9.278;2023-01-01T15:04:24;13.70;;;6.57;;
38717;SDS011;24468;52.128;9.278;2023-01-01T15:06:56;9.25;;;3.13;;
38717;SDS011;24468;52.128;9.278;2023-01-01T15:09:25;4.93;;;2.80;;
38717;SDS011;24468;52.128;9.278;2023-01-01T15:11:52;5.03;;;2.58;;
38717;SDS011;24468;52.128;9.278;2023-01-01T15:17:06;4.93;;;2.13;;
38717;SDS011;24468;52.128;9.278;2023-01-01T15:19:35;7.43;;;2.53;;
38717;SDS011;24468;52.128;9.278;2023-01-01T15:22:23;7.32;;;4.15;;
38717;SDS011;24468;52.128;9.278;2023-01-01T15:27:31;11.82;;;6.13;;
38717;SDS011;24468;52.128;9.278;2023-01-01T15:29:59;20.45;;;9.10;;
38717;SDS011;24468;52.128;9.278;2023-01-01T15:32:27;10.57;;;6.72;;
38717;SDS011;24468;52.128;9.278;2023-01-01T15:35:19;9.73;;;4.80;;
38717;SDS011;24468;52.128;9.278;2023-01-01T15:38:00;7.00;;;3.85;;
38717;SDS011;24468;52.128;9.278;2023-01-01T15:40:33;6.30;;;2.08;;
38717;SDS011;24468;52.128;9.278;2023-01-01T15:45:35;5.57;;;1.90;;
38717;SDS011;24468;52.128;9.278;2023-01-01T15:53:21;6.85;;;2.78;;
38717;SDS011;24468;52.128;9.278;2023-01-01T15:55:57;5.22;;;3.30;;
38717;SDS011;24468;52.128;9.278;2023-01-01T16:01:34;11.30;;;6.15;;
38717;SDS011;24468;52.128;9.278;2023-01-01T16:04:10;11.18;;;5.25;;
38717;SDS011;24468;52.128;9.278;2023-01-01T16:06:49;8.05;;;3.03;;
38717;SDS011;24468;52.128;9.278;2023-01-01T16:09:17;6.68;;;2.83;;
38717;SDS011;24468;52.128;9.278;2023-01-01T16:11:44;8.98;;;3.10;;
38717;SDS011;24468;52.128;9.278;2023-01-01T16:14:14;7.35;;;2.53;;
38717;SDS011;24468;52.128;9.278;2023-01-01T16:16:41;5.10;;;2.35;;
38717;SDS011;24468;52.128;9.278;2023-01-01T16:19:16;8.60;;;4.95;;
38717;SDS011;24468;52.128;9.278;2023-01-01T16:21:42;8.20;;;4.13;;
38717;SDS011;24468;52.128;9.278;2023-01-01T16:24:11;7.57;;;3.38;;
38717;SDS011;24468;52.128;9.278;2023-01-01T16:26:42;4.75;;;2.22;;
38717;SDS011;24468;52.128;9.278;2023-01-01T16:29:08;7.05;;;2.83;;
38717;SDS011;24468;52.128;9.278;2023-01-01T16:31:34;8.02;;;3.08;;
38717;SDS011;24468;52.128;9.278;2023-01-01T16:33:59;11.20;;;3.55;;
38717;SDS011;24468;52.128;9.278;2023-01-01T16:36:26;6.45;;;3.53;;
38717;SDS011;24468;52.128;9.278;2023-01-01T16:38:53;7.70;;;2.88;;
38717;SDS011;24468;52.128;9.278;2023-01-01T16:41:22;12.48;;;4.07;;
38717;SDS011;24468;52.128;9.278;2023-01-01T16:43:49;23.27;;;10.80;;
38717;SDS011;24468;52.128;9.278;2023-01-01T16:46:15;19.05;;;8.82;;
38717;SDS011;24468;52.128;9.278;2023-01-01T16:48:41;14.48;;;8.93;;
38717;SDS011;24468;52.128;9.278;2023-01-01T16:51:14;13.63;;;6.13;;
38717;SDS011;24468;52.128;9.278;2023-01-01T16:53:47;8.15;;;4.63;;
38717;SDS011;24468;52.128;9.278;2023-01-01T16:56:13;7.55;;;4.13;;
38717;SDS011;24468;52.128;9.278;2023-01-01T16:58:39;9.02;;;3.45;;
38717;SDS011;24468;52.128;9.278;2023-01-01T17:01:05;6.30;;;3.65;;
38717;SDS011;24468;52.128;9.278;2023-01-01T17:03:31;7.50;;;3.13;;
38717;SDS011;24468;52.128;9.278;2023-01-01T17:05:56;8.80;;;3.97;;
38717;SDS011;24468;52.128;9.278;2023-01-01T17:08:22;8.52;;;3.03;;
38717;SDS011;24468;52.128;9.278;2023-01-01T17:10:48;8.40;;;3.92;;
38717;SDS011;24468;52.128;9.278;2023-01-01T17:13:13;11.05;;;3.17;;
38717;SDS011;24468;52.128;9.278;2023-01-01T17:15:39;6.45;;;2.85;;
38717;SDS011;24468;52.128;9.278;2023-01-01T17:18:04;7.85;;;2.60;;
38717;SDS011;24468;52.128;9.278;2023-01-01T17:20:30;6.20;;;3.10;;
38717;SDS011;24468;52.128;9.278;2023-01-01T17:22:58;5.97;;;3.85;;